Time;durP1;ratioP1;P1;durP2;ratioP2;P2;SDS_P1;SDS_P2;PMS_P1;PMS_P2;Temp;Humidity;BMP_temperature;BMP_pressure;BME280_temperature;BME280_humidity;BME280_pressure;Samples;Min_cycle;Max_cycle;Signal;HPM_P1;HPM_P2
2023/06/25 00:00:45;;;;;;;;;;;;;;;17.58;52.37;93320.00;2057729;69;20078;-80
2023/06/25 00:03:11;;;;;;;;;;;;;;;17.42;53.38;93317.16;2054794;69;20211;-79
2023/06/25 00:05:37;;;;;;;;;;;;;;;17.52;53.93;93311.91;2057515;69;20125;-79
2023/06/25 00:08:04;;;;;;;;;;;;;;;17.12;54.79;93312.91;2057364;69;20119;-80
2023/06/25 00:10:30;;;;;;;;;;;;;;;17.32;54.44;93302.47;2057963;69;20513;-81
2023/06/25 00:12:59;;;;;;;;;;;;;;;17.34;54.33;93305.41;2058332;69;20082;-80
2023/06/25 00:15:27;;;;;;;;;;;;;;;17.08;54.66;93304.19;2057881;69;20136;-80
2023/06/25 00:17:56;;;;;;;;;;;;;;;17.29;53.97;93298.06;2058013;69;20085;-79
2023/06/25 00:23:50;;;;;;;;;;;;;;;17.02;55.22;93296.13;2058669;69;20206;-79
2023/06/25 00:26:15;;;;;;;;;;;;;;;17.05;55.03;93292.00;2055367;69;20158;-79
2023/06/25 00:28:41;;;;;;;;;;;;;;;17.00;55.89;93291.06;2058413;69;20390;-78
2023/06/25 00:31:06;;;;;;;;;;;;;;;17.01;55.13;93292.53;2054970;69;20050;-79
2023/06/25 00:33:33;;;;;;;;;;;;;;;17.12;55.56;93293.00;2055205;69;20129;-80
2023/06/25 00:36:00;;;;;;;;;;;;;;;17.10;55.45;93287.97;2058520;69;20057;-80
2023/06/25 00:38:27;;;;;;;;;;;;;;;17.07;55.10;93294.94;2054441;69;20058;-80
2023/06/25 00:40:53;;;;;;;;;;;;;;;16.84;55.28;93283.88;2055102;69;20096;-80
2023/06/25 00:43:21;;;;;;;;;;;;;;;16.77;56.70;93286.44;2054923;69;20086;-79
2023/06/25 00:45:46;;;;;;;;;;;;;;;16.61;56.81;93284.91;2052220;69;20078;-80
2023/06/25 00:48:12;;;;;;;;;;;;;;;16.72;56.21;93279.13;2054546;69;20054;-80
2023/06/25 00:50:38;;;;;;;;;;;;;;;16.71;56.34;93288.22;2054828;69;20093;-80
2023/06/25 00:53:08;;;;;;;;;;;;;;;16.75;55.71;93279.94;2058045;69;20057;-80
2023/06/25 00:55:34;;;;;;;;;;;;;;;16.66;56.09;93278.78;2058340;69;20517;-81
2023/06/25 00:58:01;;;;;;;;;;;;;;;16.80;55.49;93289.38;2058475;69;20116;-82
2023/06/25 01:00:31;;;;;;;;;;;;;;;16.70;55.96;93281.09;2058298;69;20050;-80
2023/06/25 01:03:04;;;;;;;;;;;;;;;16.58;56.64;93277.66;2058560;69;20066;-79
2023/06/25 01:05:43;;;;;;;;;;;;;;;16.66;55.58;93275.94;2058023;69;20137;-80
2023/06/25 01:08:10;;;;;;;;;;;;;;;16.73;54.75;93266.34;2058000;69;20500;-82
2023/06/25 01:10:36;;;;;;;;;;;;;;;16.71;53.83;93274.75;2058416;69;20157;-81
2023/06/25 01:13:01;;;;;;;;;;;;;;;16.38;55.82;93275.31;2052095;69;20511;-80
2023/06/25 01:18:58;;;;;;;;;;;;;;;16.51;55.90;93276.63;2058392;69;20049;-81
2023/06/25 01:21:26;;;;;;;;;;;;;;;16.51;55.79;93268.84;2058482;69;20050;-81
2023/06/25 01:23:52;;;;;;;;;;;;;;;16.49;55.92;93276.53;2058373;69;20219;-81
2023/06/25 01:29:48;;;;;;;;;;;;;;;16.32;56.37;93272.19;2058564;69;20473;-81
2023/06/25 01:32:14;;;;;;;;;;;;;;;16.38;55.93;93266.78;2054867;69;20418;-80
2023/06/25 01:34:40;;;;;;;;;;;;;;;16.36;55.88;93265.97;2054902;69;20062;-81
2023/06/25 01:40:34;;;;;;;;;;;;;;;16.17;56.87;93262.25;2058568;69;20203;-79
2023/06/25 01:46:28;;;;;;;;;;;;;;;16.07;57.40;93263.81;2058435;69;20061;-80
2023/06/25 01:48:54;;;;;;;;;;;;;;;16.02;57.52;93263.63;2054909;69;20050;-79
2023/06/25 01:51:20;;;;;;;;;;;;;;;16.06;57.38;93271.63;2058492;69;20050;-80
2023/06/25 01:53:45;;;;;;;;;;;;;;;16.04;57.31;93253.75;2058588;69;20112;-80
2023/06/25 01:56:11;;;;;;;;;;;;;;;16.07;57.09;93258.16;2058704;69;20054;-79
2023/06/25 01:58:36;;;;;;;;;;;;;;;15.85;57.51;93249.25;2055895;69;20176;-80
2023/06/25 02:01:02;;;;;;;;;;;;;;;16.04;57.26;93250.91;2058954;69;20054;-80
2023/06/25 02:03:27;;;;;;;;;;;;;;;15.95;57.43;93244.84;2055141;69;20065;-79
2023/06/25 02:05:52;;;;;;;;;;;;;;;15.90;57.50;93246.00;2058568;69;20064;-79
2023/06/25 02:08:18;;;;;;;;;;;;;;;15.80;58.18;93251.16;2055063;69;20050;-79
2023/06/25 02:10:44;;;;;;;;;;;;;;;15.55;58.88;93249.16;2054750;69;20584;-80
2023/06/25 02:13:09;;;;;;;;;;;;;;;15.62;58.51;93253.03;2054757;69;20050;-80
2023/06/25 02:15:35;;;;;;;;;;;;;;;15.64;58.50;93242.56;2058434;69;20116;-80
2023/06/25 02:18:01;;;;;;;;;;;;;;;15.40;59.80;93244.13;2057812;69;20054;-81
2023/06/25 02:20:27;;;;;;;;;;;;;;;15.42;59.46;93242.13;2054926;69;20088;-80
2023/06/25 02:22:52;;;;;;;;;;;;;;;15.40;59.50;93235.63;2058121;69;20050;-80
2023/06/25 02:25:18;;;;;;;;;;;;;;;15.34;59.67;93240.97;2058207;69;20104;-80
2023/06/25 02:27:43;;;;;;;;;;;;;;;15.36;59.81;93233.31;2054734;69;20231;-80
2023/06/25 02:30:09;;;;;;;;;;;;;;;15.40;59.96;93236.38;2055137;69;20054;-81
2023/06/25 02:32:35;;;;;;;;;;;;;;;15.34;60.09;93238.13;2055276;69;20113;-80
2023/06/25 02:35:00;;;;;;;;;;;;;;;15.41;59.82;93234.25;2058564;69;20555;-81
2023/06/25 02:37:26;;;;;;;;;;;;;;;15.39;59.55;93236.97;2058349;69;20112;-81
2023/06/25 02:39:51;;;;;;;;;;;;;;;15.39;59.49;93239.81;2052563;69;20116;-81
2023/06/25 02:42:17;;;;;;;;;;;;;;;15.25;59.92;93246.22;2055275;69;20053;-81
2023/06/25 02:44:43;;;;;;;;;;;;;;;15.29;59.38;93236.47;2058471;69;20056;-81
2023/06/25 02:47:09;;;;;;;;;;;;;;;15.24;59.63;93235.50;2055348;69;20050;-81
2023/06/25 02:49:35;;;;;;;;;;;;;;;15.19;59.69;93236.66;2054877;69;20061;-80
2023/06/25 02:52:01;;;;;;;;;;;;;;;15.27;59.32;93231.44;2054419;69;20050;-81
2023/06/25 02:54:26;;;;;;;;;;;;;;;15.14;60.27;93232.88;2057867;69;20698;-80
2023/06/25 02:56:52;;;;;;;;;;;;;;;14.98;60.74;93235.63;2058050;69;20054;-81
2023/06/25 02:59:18;;;;;;;;;;;;;;;14.96;60.54;93235.50;2058573;69;20054;-81
2023/06/25 03:01:43;;;;;;;;;;;;;;;15.12;59.88;93235.63;2055410;69;20050;-80
2023/06/25 03:04:09;;;;;;;;;;;;;;;15.00;60.38;93237.81;2055146;69;20141;-81
2023/06/25 03:06:34;;;;;;;;;;;;;;;15.00;59.78;93224.38;2052117;69;20054;-80
2023/06/25 03:09:00;;;;;;;;;;;;;;;14.84;61.31;93232.00;2058467;69;20057;-81
2023/06/25 03:11:25;;;;;;;;;;;;;;;14.92;61.02;93228.88;2055230;69;20057;-81
2023/06/25 03:13:51;;;;;;;;;;;;;;;14.84;61.16;93232.00;2058453;69;20404;-80
2023/06/25 03:16:16;;;;;;;;;;;;;;;14.82;61.12;93219.84;2055323;69;20164;-79
2023/06/25 03:18:42;;;;;;;;;;;;;;;14.83;61.27;93224.13;2054970;69;20141;-80
2023/06/25 03:21:07;;;;;;;;;;;;;;;14.85;61.33;93215.75;2058603;69;20049;-80
2023/06/25 03:23:33;;;;;;;;;;;;;;;14.71;61.54;93227.78;2058436;69;20565;-80
2023/06/25 03:26:00;;;;;;;;;;;;;;;14.84;61.33;93222.75;2054997;69;20050;-80
2023/06/25 03:28:27;;;;;;;;;;;;;;;14.82;61.22;93225.50;2054877;69;20320;-80
2023/06/25 03:30:53;;;;;;;;;;;;;;;14.93;60.63;93219.00;2055157;69;20054;-80
2023/06/25 03:33:18;;;;;;;;;;;;;;;14.88;60.79;93222.97;2058488;69;20085;-80
2023/06/25 03:35:44;;;;;;;;;;;;;;;14.90;60.79;93226.66;2058565;69;20050;-79
2023/06/25 03:38:10;;;;;;;;;;;;;;;14.92;59.83;93226.78;2058445;69;20053;-79
2023/06/25 03:40:37;;;;;;;;;;;;;;;14.71;61.17;93224.97;2055059;69;20078;-79
2023/06/25 03:43:03;;;;;;;;;;;;;;;14.68;61.39;93222.63;2058169;69;20127;-79
2023/06/25 03:45:30;;;;;;;;;;;;;;;14.77;61.10;93223.81;2055118;69;20560;-80
2023/06/25 03:47:55;;;;;;;;;;;;;;;14.84;60.68;93225.59;2058387;69;20110;-80
2023/06/25 03:50:21;;;;;;;;;;;;;;;14.44;62.18;93225.59;2055096;69;20046;-79
2023/06/25 03:52:47;;;;;;;;;;;;;;;14.67;61.34;93227.56;2058404;69;20052;-80
2023/06/25 03:55:12;;;;;;;;;;;;;;;14.65;61.71;93215.38;2058575;69;20054;-80
2023/06/25 03:57:38;;;;;;;;;;;;;;;14.66;61.56;93222.50;2058670;69;20085;-79
2023/06/25 04:00:04;;;;;;;;;;;;;;;14.65;61.41;93212.56;2059043;69;20482;-81
2023/06/25 04:02:38;;;;;;;;;;;;;;;14.61;61.65;93212.31;2058797;69;20058;-80
2023/06/25 04:05:04;;;;;;;;;;;;;;;14.66;61.63;93214.78;2055478;69;20087;-80
2023/06/25 04:07:30;;;;;;;;;;;;;;;14.70;61.06;93208.56;2054905;69;20046;-79
2023/06/25 04:09:56;;;;;;;;;;;;;;;14.73;61.58;93213.00;2055260;69;20064;-79
2023/06/25 04:15:51;;;;;;;;;;;;;;;14.77;61.38;93209.66;2058929;69;20517;-80
2023/06/25 04:18:17;;;;;;;;;;;;;;;14.62;62.06;93206.06;2054818;69;20081;-81
2023/06/25 04:20:46;;;;;;;;;;;;;;;14.78;61.16;93205.44;2054562;69;20070;-81
2023/06/25 04:23:15;;;;;;;;;;;;;;;14.78;61.44;93209.00;2054770;69;20149;-81
2023/06/25 04:29:10;;;;;;;;;;;;;;;14.66;61.98;93202.69;2058200;69;20057;-82
2023/06/25 04:31:37;;;;;;;;;;;;;;;14.64;61.65;93202.59;2055117;69;20085;-80
2023/06/25 04:34:03;;;;;;;;;;;;;;;14.68;61.96;93203.53;2055343;69;20050;-80
2023/06/25 04:36:29;;;;;;;;;;;;;;;14.72;62.13;93200.94;2058820;69;20057;-79
2023/06/25 04:38:57;;;;;;;;;;;;;;;14.74;61.81;93203.84;2055443;69;20073;-80
2023/06/25 04:41:26;;;;;;;;;;;;;;;14.54;62.66;93208.44;2055461;69;20168;-78
2023/06/25 04:43:53;;;;;;;;;;;;;;;14.59;62.08;93210.13;2055294;69;20069;-80
2023/06/25 04:46:18;;;;;;;;;;;;;;;14.67;62.09;93209.84;2055596;69;20421;-80
2023/06/25 04:48:45;;;;;;;;;;;;;;;14.61;62.72;93207.41;2061157;69;20057;-80
2023/06/25 04:51:11;;;;;;;;;;;;;;;14.59;62.73;93203.72;2056102;69;20473;-79
2023/06/25 04:53:38;;;;;;;;;;;;;;;14.68;62.34;93212.03;2058720;69;20050;-78
2023/06/25 04:56:03;;;;;;;;;;;;;;;14.64;62.34;93208.25;2058641;69;20054;-78
2023/06/25 04:58:30;;;;;;;;;;;;;;;14.66;62.56;93211.94;2058806;69;20056;-76
2023/06/25 05:01:01;;;;;;;;;;;;;;;14.65;63.23;93212.56;2058787;69;20046;-79
2023/06/25 05:03:27;;;;;;;;;;;;;;;14.54;63.13;93204.88;2058473;69;20175;-77
2023/06/25 05:05:52;;;;;;;;;;;;;;;14.42;63.58;93210.56;2058653;69;20141;-77
2023/06/25 05:08:18;;;;;;;;;;;;;;;14.61;62.94;93203.81;2058618;69;20105;-78
2023/06/25 05:10:43;;;;;;;;;;;;;;;14.76;62.29;93206.06;2052578;69;20052;-79
2023/06/25 05:13:10;;;;;;;;;;;;;;;14.79;62.55;93210.47;2058413;69;20398;-80
2023/06/25 05:15:35;;;;;;;;;;;;;;;14.67;63.46;93201.34;2055274;69;20053;-82
2023/06/25 05:18:02;;;;;;;;;;;;;;;14.68;62.66;93206.38;2055480;69;20128;-77
2023/06/25 05:20:33;;;;;;;;;;;;;;;14.72;62.55;93203.75;2058678;69;20474;-78
2023/06/25 05:22:58;;;;;;;;;;;;;;;14.36;63.40;93208.16;2058485;69;20076;-78
2023/06/25 05:25:24;;;;;;;;;;;;;;;14.58;62.76;93207.94;2058588;69;20478;-78
2023/06/25 05:27:50;;;;;;;;;;;;;;;14.78;62.83;93214.69;2054974;69;20093;-78
2023/06/25 05:30:16;;;;;;;;;;;;;;;14.67;63.30;93210.56;2058121;69;20783;-78
2023/06/25 05:32:42;;;;;;;;;;;;;;;14.66;63.32;93206.28;2057947;69;20204;-78
2023/06/25 05:35:09;;;;;;;;;;;;;;;14.68;63.73;93206.38;2058067;69;20066;-77
2023/06/25 05:37:35;;;;;;;;;;;;;;;14.66;63.53;93203.44;2058404;69;20086;-79
2023/06/25 05:40:02;;;;;;;;;;;;;;;14.75;63.39;93204.59;2058427;69;20090;-79
2023/06/25 05:42:29;;;;;;;;;;;;;;;14.72;63.34;93203.03;2058476;69;20074;-79
2023/06/25 05:44:55;;;;;;;;;;;;;;;14.66;63.88;93209.09;2058562;69;20053;-77
2023/06/25 05:50:48;;;;;;;;;;;;;;;14.86;62.55;93203.78;2058696;69;20520;-79
2023/06/25 05:53:14;;;;;;;;;;;;;;;14.82;63.30;93209.22;2058186;69;20120;-79
2023/06/25 05:59:08;;;;;;;;;;;;;;;14.88;63.57;93203.88;2058240;69;20045;-79
2023/06/25 06:01:34;;;;;;;;;;;;;;;14.89;63.61;93193.25;2058551;69;20050;-79
2023/06/25 06:04:01;;;;;;;;;;;;;;;14.92;63.40;93211.88;2058227;69;20057;-78
2023/06/25 06:06:26;;;;;;;;;;;;;;;15.05;62.20;93204.75;2054998;69;20065;-79
2023/06/25 06:08:52;;;;;;;;;;;;;;;15.08;62.78;93203.50;2058204;69;20050;-79
2023/06/25 06:11:17;;;;;;;;;;;;;;;15.17;63.23;93202.53;2055111;69;20477;-79
2023/06/25 06:13:43;;;;;;;;;;;;;;;15.13;63.22;93202.34;2055197;69;20085;-80
2023/06/25 06:16:08;;;;;;;;;;;;;;;15.12;63.51;93195.94;2058487;69;20089;-79
2023/06/25 06:18:34;;;;;;;;;;;;;;;15.17;62.11;93205.38;2054761;69;20049;-80
2023/06/25 06:20:59;;;;;;;;;;;;;;;15.28;62.67;93189.63;2058250;69;20093;-79
2023/06/25 06:23:25;;;;;;;;;;;;;;;15.45;62.02;93195.47;2055187;69;20046;-79
2023/06/25 06:25:51;;;;;;;;;;;;;;;15.64;62.01;93194.31;2058500;69;20057;-79
2023/06/25 06:28:17;;;;;;;;;;;;;;;15.75;62.07;93184.19;2058322;69;20084;-81
2023/06/25 06:30:43;;;;;;;;;;;;;;;15.88;61.48;93189.09;2058084;69;20049;-79
2023/06/25 06:33:08;;;;;;;;;;;;;;;15.96;61.80;93183.81;2058167;69;20108;-80
2023/06/25 06:35:34;;;;;;;;;;;;;;;16.16;60.60;93180.50;2058489;69;20060;-82
2023/06/25 06:38:00;;;;;;;;;;;;;;;16.22;61.49;93169.44;2057734;69;20087;-80
2023/06/25 06:44:09;;;;;;;;;;;;;;;16.47;60.06;93162.78;2061632;69;20053;-82
2023/06/25 06:46:34;;;;;;;;;;;;;;;16.56;60.06;93158.94;2055968;69;20223;-81
2023/06/25 06:49:00;;;;;;;;;;;;;;;16.61;59.78;93146.38;2058109;69;20234;-81
2023/06/25 06:51:26;;;;;;;;;;;;;;;16.84;58.75;93145.28;2054231;69;20058;-81
2023/06/25 06:53:52;;;;;;;;;;;;;;;16.89;58.83;93138.41;2054123;69;20057;-81
2023/06/25 06:56:19;;;;;;;;;;;;;;;17.02;58.17;93140.41;2058317;69;20050;-81
2023/06/25 06:58:45;;;;;;;;;;;;;;;17.18;56.84;93131.09;2058622;69;20414;-82
2023/06/25 07:01:11;;;;;;;;;;;;;;;17.30;56.77;93130.91;2055123;69;20046;-82
2023/06/25 07:03:37;;;;;;;;;;;;;;;17.37;57.34;93126.97;2058576;69;20156;-81
2023/06/25 07:06:03;;;;;;;;;;;;;;;17.43;58.07;93121.50;2054910;69;20145;-81
2023/06/25 07:08:28;;;;;;;;;;;;;;;17.56;57.55;93126.34;2058165;69;20133;-81
2023/06/25 07:10:54;;;;;;;;;;;;;;;17.69;58.01;93122.63;2058846;69;20168;-84
2023/06/25 07:13:19;;;;;;;;;;;;;;;17.78;57.27;93120.88;2058572;69;20410;-82
2023/06/25 07:15:45;;;;;;;;;;;;;;;17.87;56.94;93110.50;2058453;69;20057;-81
2023/06/25 07:18:10;;;;;;;;;;;;;;;17.88;57.99;93106.31;2058541;69;20056;-81
2023/06/25 07:20:36;;;;;;;;;;;;;;;18.02;56.97;93106.88;2058686;69;20137;-81
2023/06/25 07:23:04;;;;;;;;;;;;;;;18.00;55.87;93098.22;2058717;69;20050;-82
2023/06/25 07:25:29;;;;;;;;;;;;;;;18.19;56.78;93108.22;2058573;69;20049;-82
2023/06/25 07:27:55;;;;;;;;;;;;;;;18.28;57.71;93104.31;2058587;69;20050;-82
2023/06/25 07:30:20;;;;;;;;;;;;;;;18.39;55.78;93096.88;2058458;69;20073;-81
2023/06/25 07:32:45;;;;;;;;;;;;;;;18.49;56.21;93103.69;2055199;69;20057;-83
2023/06/25 07:35:11;;;;;;;;;;;;;;;18.36;52.47;93101.75;2059045;69;20062;-81
2023/06/25 07:41:04;;;;;;;;;;;;;;;18.43;51.99;93089.22;2059028;69;20178;-79
2023/06/25 07:43:30;;;;;;;;;;;;;;;18.44;52.23;93090.69;2057912;69;20066;-81
2023/06/25 07:45:55;;;;;;;;;;;;;;;18.43;51.26;93080.66;2058922;69;20053;-81
2023/06/25 07:51:50;;;;;;;;;;;;;;;18.56;50.16;93076.16;2058901;69;20075;-81
2023/06/25 07:54:16;;;;;;;;;;;;;;;18.78;50.17;93074.16;2055515;69;20530;-80
2023/06/25 07:56:44;;;;;;;;;;;;;;;18.98;49.93;93079.84;2058839;69;20089;-81
2023/06/25 07:59:13;;;;;;;;;;;;;;;19.12;50.25;93071.06;2058935;69;20083;-81
2023/06/25 08:01:39;;;;;;;;;;;;;;;19.19;49.28;93066.28;2058924;69;20079;-81
2023/06/25 08:04:04;;;;;;;;;;;;;;;19.29;49.68;93058.81;2058879;69;20054;-82
2023/06/25 08:06:30;;;;;;;;;;;;;;;19.32;48.69;93056.03;2054749;69;20050;-81
2023/06/25 08:08:55;;;;;;;;;;;;;;;19.54;47.95;93053.94;2057430;69;20526;-81
2023/06/25 08:11:21;;;;;;;;;;;;;;;19.86;48.57;93057.13;2059013;69;20050;-81
2023/06/25 08:13:46;;;;;;;;;;;;;;;19.86;46.84;93054.28;2058676;69;20073;-81
2023/06/25 08:16:12;;;;;;;;;;;;;;;19.95;46.75;93047.41;2058906;69;20050;-81
2023/06/25 08:18:37;;;;;;;;;;;;;;;20.09;48.31;93040.69;2058812;69;20453;-80
2023/06/25 08:21:02;;;;;;;;;;;;;;;20.46;48.36;93037.53;2055246;69;20057;-79
2023/06/25 08:23:28;;;;;;;;;;;;;;;20.56;44.71;93037.13;2054908;69;20152;-81
2023/06/25 08:25:55;;;;;;;;;;;;;;;20.98;46.27;93028.28;2058586;69;20050;-80
2023/06/25 08:28:21;;;;;;;;;;;;;;;21.43;44.88;93038.09;2058369;69;20042;-81
2023/06/25 08:30:46;;;;;;;;;;;;;;;21.74;46.28;93036.72;2056902;69;20050;-80
2023/06/25 08:33:12;;;;;;;;;;;;;;;22.18;44.55;93031.34;2058888;69;20541;-81
2023/06/25 08:39:05;;;;;;;;;;;;;;;23.09;42.83;93034.72;2059206;69;20050;-82
2023/06/25 08:41:31;;;;;;;;;;;;;;;23.27;42.01;93029.31;2058796;69;20062;-81
2023/06/25 08:43:56;;;;;;;;;;;;;;;23.68;40.01;93027.19;2057817;69;20088;-80
2023/06/25 08:46:23;;;;;;;;;;;;;;;24.04;39.40;93021.31;2058011;69;20137;-81
2023/06/25 08:48:52;;;;;;;;;;;;;;;24.20;38.82;93023.72;2058372;69;20080;-80
2023/06/25 08:51:21;;;;;;;;;;;;;;;24.09;39.12;93014.19;2058672;69;20061;-81
2023/06/25 08:57:16;;;;;;;;;;;;;;;24.42;38.32;93011.84;2058775;69;20136;-80
2023/06/25 08:59:42;;;;;;;;;;;;;;;24.76;39.54;93019.50;2058544;69;20070;-81
2023/06/25 09:02:08;;;;;;;;;;;;;;;25.40;38.62;93015.22;2055119;69;20054;-80
2023/06/25 09:04:34;;;;;;;;;;;;;;;25.19;36.98;93017.13;2058629;69;20097;-81
2023/06/25 09:07:06;;;;;;;;;;;;;;;25.78;38.03;93012.00;2058547;69;20054;-82
2023/06/25 09:09:34;;;;;;;;;;;;;;;26.38;36.75;93011.00;2058757;69;20497;-82
2023/06/25 09:11:59;;;;;;;;;;;;;;;26.70;34.85;93007.63;2058691;69;20086;-81
2023/06/25 09:14:27;;;;;;;;;;;;;;;26.26;35.50;92999.41;2055099;69;20058;-81
2023/06/25 09:16:54;;;;;;;;;;;;;;;27.30;35.02;93000.66;2058413;69;20058;-81
2023/06/25 09:22:50;;;;;;;;;;;;;;;27.18;33.58;92997.75;2058616;69;20065;-82
2023/06/25 09:25:15;;;;;;;;;;;;;;;27.44;35.12;92999.25;2056651;69;20050;-84
2023/06/25 09:27:41;;;;;;;;;;;;;;;27.62;33.24;92987.72;2058837;69;20046;-82
2023/06/25 09:30:09;;;;;;;;;;;;;;;27.49;33.97;92977.59;2058657;69;20061;-81
2023/06/25 09:32:46;;;;;;;;;;;;;;;28.87;34.07;92973.94;2058649;69;20120;-81
2023/06/25 09:35:17;;;;;;;;;;;;;;;29.12;31.59;92975.28;2055078;69;20054;-80
2023/06/25 09:37:43;;;;;;;;;;;;;;;29.33;31.03;92972.28;2058436;69;20054;-83
2023/06/25 09:40:08;;;;;;;;;;;;;;;28.78;32.31;92972.50;2058378;69;20045;-80
2023/06/25 09:42:35;;;;;;;;;;;;;;;29.09;30.90;92959.38;2058111;69;20054;-83
2023/06/25 09:45:01;;;;;;;;;;;;;;;29.38;32.08;92957.03;2058609;69;20483;-83
2023/06/25 09:47:27;;;;;;;;;;;;;;;29.09;30.98;92955.72;2058571;69;20147;-81
2023/06/25 09:49:53;;;;;;;;;;;;;;;28.41;31.39;92960.28;2058472;69;20136;-81
2023/06/25 09:52:21;;;;;;;;;;;;;;;29.78;30.90;92954.63;2058326;69;20053;-81
2023/06/25 09:54:48;;;;;;;;;;;;;;;30.37;30.58;92957.03;2058315;69;20110;-83
2023/06/25 09:57:17;;;;;;;;;;;;;;;29.84;29.42;92960.38;2058460;69;20061;-81
2023/06/25 10:03:11;;;;;;;;;;;;;;;31.24;28.61;92945.91;2058563;69;20060;-84
2023/06/25 10:05:37;;;;;;;;;;;;;;;31.85;28.23;92937.09;2058330;69;20150;-80
2023/06/25 10:08:03;;;;;;;;;;;;;;;31.87;27.76;92939.97;2054816;69;20058;-82
2023/06/25 10:10:29;;;;;;;;;;;;;;;32.04;27.00;92928.06;2058361;69;20062;-82
2023/06/25 10:12:55;;;;;;;;;;;;;;;31.53;26.84;92926.66;2058108;69;20152;-81
2023/06/25 10:18:53;;;;;;;;;;;;;;;33.20;26.75;92925.22;2058330;69;20207;-81
2023/06/25 10:21:19;;;;;;;;;;;;;;;33.39;26.46;92923.34;2058425;69;20119;-83
2023/06/25 10:23:58;;;;;;;;;;;;;;;33.86;25.69;92914.28;2054920;69;20097;-84
2023/06/25 10:26:25;;;;;;;;;;;;;;;34.38;23.67;92917.41;2060646;69;20046;-81
2023/06/25 10:28:52;;;;;;;;;;;;;;;34.64;25.23;92913.09;2061951;69;20070;-85
2023/06/25 10:31:18;;;;;;;;;;;;;;;35.20;24.75;92908.66;2058638;69;20074;-82
2023/06/25 10:33:43;;;;;;;;;;;;;;;35.47;23.64;92908.63;2059640;69;20149;-84
2023/06/25 10:36:11;;;;;;;;;;;;;;;36.45;22.53;92911.38;2058357;69;20093;-84
2023/06/25 10:38:38;;;;;;;;;;;;;;;36.40;22.85;92908.56;2058336;69;20073;-82
2023/06/25 10:41:04;;;;;;;;;;;;;;;37.70;21.66;92907.63;2058363;69;20089;-82
2023/06/25 10:43:29;;;;;;;;;;;;;;;39.29;19.72;92898.81;2057882;69;20093;-80
2023/06/25 10:45:56;;;;;;;;;;;;;;;41.32;18.56;92908.06;2057401;69;20050;-80
2023/06/25 10:48:23;;;;;;;;;;;;;;;42.37;16.88;92906.06;2057888;69;20050;-82
2023/06/25 10:50:51;;;;;;;;;;;;;;;44.02;16.67;92913.22;2058001;69;20050;-83
2023/06/25 10:53:21;;;;;;;;;;;;;;;44.50;16.25;92894.53;2057487;69;20499;-84
2023/06/25 10:55:47;;;;;;;;;;;;;;;42.88;16.34;92888.31;2058372;69;20057;-84
2023/06/25 10:58:17;;;;;;;;;;;;;;;43.54;15.95;92888.78;2058282;69;20046;-84
2023/06/25 11:00:43;;;;;;;;;;;;;;;44.91;15.42;92885.88;2058437;69;20050;-84
2023/06/25 11:03:09;;;;;;;;;;;;;;;45.41;15.28;92883.25;2058081;69;20044;-83
2023/06/25 11:05:39;;;;;;;;;;;;;;;45.94;15.23;92885.47;2054949;69;20133;-83
2023/06/25 11:08:07;;;;;;;;;;;;;;;45.60;13.93;92881.13;2057759;69;20066;-82
2023/06/25 11:10:34;;;;;;;;;;;;;;;44.75;14.24;92875.81;2058394;69;20046;-83
2023/06/25 11:13:00;;;;;;;;;;;;;;;46.73;13.21;92879.66;2055503;69;20061;-82
2023/06/25 11:15:29;;;;;;;;;;;;;;;46.97;14.64;92867.47;2058409;69;20054;-82
2023/06/25 11:17:54;;;;;;;;;;;;;;;47.35;12.05;92861.53;2054995;69;20490;-81
2023/06/25 11:20:23;;;;;;;;;;;;;;;48.83;12.15;92866.03;2058481;69;20057;-82
2023/06/25 11:22:49;;;;;;;;;;;;;;;49.36;11.53;92864.56;2058283;69;20130;-81
2023/06/25 11:25:15;;;;;;;;;;;;;;;49.22;11.90;92859.09;2055063;69;20541;-83
2023/06/25 11:27:41;;;;;;;;;;;;;;;46.08;13.68;92842.78;2058494;69;20138;-84
2023/06/25 11:30:09;;;;;;;;;;;;;;;49.95;11.59;92852.03;2054958;69;20050;-81
2023/06/25 11:32:36;;;;;;;;;;;;;;;49.43;11.19;92849.75;2058122;69;20065;-82
2023/06/25 11:35:10;;;;;;;;;;;;;;;48.02;10.86;92836.91;2058003;69;20060;-82
2023/06/25 11:37:47;;;;;;;;;;;;;;;48.95;10.98;92839.72;2057918;69;20066;-81
2023/06/25 11:43:41;;;;;;;;;;;;;;;49.15;9.82;92831.31;2058609;69;20200;-82
2023/06/25 11:46:06;;;;;;;;;;;;;;;47.08;10.99;92821.16;2058320;69;20153;-80
2023/06/25 11:48:34;;;;;;;;;;;;;;;51.45;10.93;92818.84;2057899;69;20474;-82
2023/06/25 11:51:06;;;;;;;;;;;;;;;47.88;11.22;92817.84;2058465;69;20057;-81
2023/06/25 11:53:34;;;;;;;;;;;;;;;51.05;10.44;92812.81;2058053;69;20050;-81
2023/06/25 11:56:02;;;;;;;;;;;;;;;48.33;10.11;92808.94;2058508;69;20054;-81
2023/06/25 11:58:28;;;;;;;;;;;;;;;50.16;10.40;92806.03;2058380;69;20168;-82
2023/06/25 12:04:23;;;;;;;;;;;;;;;45.85;10.94;92790.88;2057957;69;20056;-82
2023/06/25 12:06:49;;;;;;;;;;;;;;;44.17;12.10;92780.22;2052000;69;20038;-80
2023/06/25 12:09:16;;;;;;;;;;;;;;;41.99;13.43;92767.06;2058127;69;20663;-82
2023/06/25 12:11:45;;;;;;;;;;;;;;;37.74;15.83;92751.81;2053301;69;20115;-80
2023/06/25 12:14:12;;;;;;;;;;;;;;;37.07;17.10;92758.13;2057957;69;20070;-83
2023/06/25 12:16:38;;;;;;;;;;;;;;;37.83;17.50;92756.53;2057813;69;20291;-81
2023/06/25 12:19:05;;;;;;;;;;;;;;;37.01;17.35;92764.22;2058445;69;20164;-81
2023/06/25 12:21:31;;;;;;;;;;;;;;;38.43;16.43;92754.06;2058721;69;20045;-82
2023/06/25 12:23:56;;;;;;;;;;;;;;;36.79;18.91;92736.44;2058041;69;20115;-82
2023/06/25 12:26:22;;;;;;;;;;;;;;;36.28;18.24;92735.34;2054905;69;20433;-81
2023/06/25 12:28:50;;;;;;;;;;;;;;;36.18;18.81;92744.50;2058511;69;20074;-81
2023/06/25 12:31:15;;;;;;;;;;;;;;;35.20;19.13;92730.19;2054917;69;20050;-81
2023/06/25 12:33:42;;;;;;;;;;;;;;;35.80;19.18;92733.34;2058588;69;20425;-83
2023/06/25 12:36:08;;;;;;;;;;;;;;;35.61;19.60;92729.59;2058667;69;20050;-80
2023/06/25 12:38:34;;;;;;;;;;;;;;;35.20;19.80;92727.97;2058758;69;20405;-80
2023/06/25 12:41:00;;;;;;;;;;;;;;;34.70;19.18;92713.41;2058770;69;20153;-86
2023/06/25 12:43:26;;;;;;;;;;;;;;;36.19;18.73;92716.63;2058298;69;20137;-78
2023/06/25 12:45:52;;;;;;;;;;;;;;;35.39;19.72;92722.25;2058483;69;20042;-82
2023/06/25 12:48:17;;;;;;;;;;;;;;;35.03;20.90;92724.13;2058071;69;20085;-81
2023/06/25 12:50:43;;;;;;;;;;;;;;;34.78;20.66;92721.22;2058425;69;20127;-80
2023/06/25 12:53:08;;;;;;;;;;;;;;;34.72;19.35;92709.72;2058543;69;20050;-81
2023/06/25 12:55:33;;;;;;;;;;;;;;;34.27;21.70;92720.50;2058638;69;20756;-80
2023/06/25 12:57:59;;;;;;;;;;;;;;;33.92;20.94;92705.38;2058856;69;20478;-82
2023/06/25 13:00:24;;;;;;;;;;;;;;;34.00;20.72;92705.19;2058552;69;20109;-81
2023/06/25 13:02:50;;;;;;;;;;;;;;;32.94;20.72;92693.25;2058472;69;20042;-82
2023/06/25 13:05:16;;;;;;;;;;;;;;;32.84;21.53;92691.97;2058276;69;20058;-81
2023/06/25 13:07:42;;;;;;;;;;;;;;;33.68;20.88;92689.97;2056364;69;20061;-81
2023/06/25 13:10:07;;;;;;;;;;;;;;;33.53;20.65;92686.69;2058423;69;20200;-81
2023/06/25 13:12:33;;;;;;;;;;;;;;;32.71;20.76;92695.94;2058521;69;20050;-81
2023/06/25 13:14:59;;;;;;;;;;;;;;;32.74;21.37;92685.69;2056117;69;20058;-81
2023/06/25 13:17:24;;;;;;;;;;;;;;;32.01;21.00;92685.03;2061448;69;20054;-82
2023/06/25 13:19:50;;;;;;;;;;;;;;;32.53;21.64;92686.16;2059028;69;20429;-82
2023/06/25 13:22:15;;;;;;;;;;;;;;;32.48;20.67;92684.06;2058395;69;20054;-81
2023/06/25 13:24:44;;;;;;;;;;;;;;;32.42;21.73;92681.28;2058211;69;20085;-81
2023/06/25 13:27:09;;;;;;;;;;;;;;;32.10;21.54;92677.56;2058223;69;20058;-81
2023/06/25 13:29:35;;;;;;;;;;;;;;;31.92;21.32;92681.56;2058122;69;20128;-81
2023/06/25 13:32:00;;;;;;;;;;;;;;;32.33;21.21;92683.63;2059284;69;20054;-81
2023/06/25 13:34:26;;;;;;;;;;;;;;;32.36;22.00;92688.66;2055828;69;20082;-82
2023/06/25 13:40:20;;;;;;;;;;;;;;;32.05;21.66;92671.09;2059481;69;20049;-81
2023/06/25 13:42:45;;;;;;;;;;;;;;;31.29;22.05;92676.88;2059189;69;20054;-82
2023/06/25 13:45:11;;;;;;;;;;;;;;;31.84;22.06;92667.91;2058760;69;20050;-82
2023/06/25 13:47:36;;;;;;;;;;;;;;;32.10;21.92;92675.38;2059084;69;20136;-82
2023/06/25 13:50:02;;;;;;;;;;;;;;;31.74;22.56;92670.25;2058354;69;20053;-84
2023/06/25 13:52:27;;;;;;;;;;;;;;;31.86;21.78;92667.84;2058693;69;20113;-83